createdAt,value
2024-04-25T00:00:39.211Z,22.20
2024-04-25T00:03:09.845Z,12.80
2024-04-25T00:05:40.200Z,9.37
2024-04-25T00:08:13.285Z,14.13
2024-04-25T00:10:43.835Z,11.70
2024-04-25T00:13:13.715Z,16.70
2024-04-25T00:15:44.127Z,11.93
2024-04-25T00:18:14.030Z,14.80
2024-04-25T00:20:44.754Z,8.77
2024-04-25T00:23:17.845Z,15.33
2024-04-25T00:25:47.945Z,12.77
2024-04-25T00:28:18.127Z,14.33
2024-04-25T00:30:48.588Z,14.93
2024-04-25T00:33:18.949Z,11.63
2024-04-25T00:35:48.989Z,15.43
2024-04-25T00:38:22.672Z,9.57
2024-04-25T00:40:53.646Z,10.33
2024-04-25T00:43:32.198Z,9.10
2024-04-25T00:46:02.467Z,9.07
2024-04-25T00:48:34.036Z,14.47
2024-04-25T00:51:08.103Z,8.10
2024-04-25T00:53:41.169Z,9.20
2024-04-25T00:56:11.443Z,8.90
2024-04-25T00:58:43.063Z,14.43
2024-04-25T01:01:15.254Z,8.30
2024-04-25T01:03:46.965Z,13.40
2024-04-25T01:06:22.323Z,8.40
2024-04-25T01:08:55.011Z,15.27
2024-04-25T01:11:25.635Z,8.37
2024-04-25T01:13:56.008Z,13.27
2024-04-25T01:16:25.982Z,13.07
2024-04-25T01:18:55.987Z,10.50
2024-04-25T01:21:26.194Z,12.57
2024-04-25T01:24:02.213Z,9.43
2024-04-25T01:26:35.630Z,11.93
2024-04-25T01:29:09.675Z,12.00
2024-04-25T01:31:40.210Z,8.87
2024-04-25T01:34:11.162Z,10.77
2024-04-25T01:36:44.025Z,10.17
2024-04-25T01:39:14.485Z,10.53
2024-04-25T01:41:47.098Z,10.03
2024-04-25T01:44:17.199Z,12.00
2024-04-25T01:46:47.701Z,11.67
2024-04-25T01:49:17.810Z,10.27
2024-04-25T01:51:47.792Z,9.80
2024-04-25T01:54:17.946Z,11.03
2024-04-25T01:56:50.739Z,14.40
2024-04-25T01:59:20.951Z,9.13
2024-04-25T02:01:51.920Z,10.23
2024-04-25T02:04:22.017Z,8.43
2024-04-25T02:06:52.012Z,12.50
2024-04-25T02:09:21.932Z,11.97
2024-04-25T02:11:55.055Z,9.73
2024-04-25T02:14:25.260Z,13.03
2024-04-25T02:16:55.472Z,9.83
2024-04-25T02:19:25.835Z,10.17
2024-04-25T02:22:11.786Z,11.43
2024-04-25T02:24:57.652Z,9.47
2024-04-25T02:27:30.582Z,8.90
2024-04-25T02:30:00.762Z,11.83
2024-04-25T02:32:30.913Z,13.07
2024-04-25T02:35:01.182Z,12.87
2024-04-25T02:37:31.086Z,11.40
2024-04-25T02:40:01.040Z,10.63
2024-04-25T02:42:33.766Z,9.93
2024-04-25T02:45:01.075Z,10.20
2024-04-25T02:47:31.078Z,11.17
2024-04-25T02:49:58.769Z,14.07
2024-04-25T02:52:28.692Z,17.47
2024-04-25T02:54:57.342Z,11.40
2024-04-25T02:57:27.481Z,13.67
2024-04-25T02:59:57.372Z,12.50
2024-04-25T03:02:27.316Z,15.13
2024-04-25T03:04:54.913Z,13.03
2024-04-25T03:07:24.805Z,13.33
2024-04-25T03:09:52.179Z,13.57
2024-04-25T03:12:22.258Z,12.80
2024-04-25T03:14:49.549Z,10.70
2024-04-25T03:17:22.209Z,11.80
2024-04-25T03:19:49.699Z,13.90
2024-04-25T03:22:19.647Z,12.13
2024-04-25T03:24:46.981Z,11.97
2024-04-25T03:27:17.094Z,13.80
2024-04-25T03:29:44.620Z,13.07
2024-04-25T03:32:14.613Z,13.90
2024-04-25T03:34:45.018Z,15.10
2024-04-25T03:37:15.160Z,14.60
2024-04-25T03:39:45.216Z,17.37
2024-04-25T03:42:15.466Z,14.73
2024-04-25T03:44:45.370Z,19.83
2024-04-25T03:47:15.773Z,12.80
2024-04-25T03:49:48.421Z,15.47
2024-04-25T03:52:19.871Z,17.60
2024-04-25T03:54:50.149Z,14.87
2024-04-25T03:57:20.106Z,14.57
2024-04-25T03:59:50.016Z,12.63
2024-04-25T04:02:20.327Z,11.23
2024-04-25T04:04:52.893Z,14.33
2024-04-25T04:07:23.181Z,13.83
2024-04-25T04:09:53.066Z,22.10
2024-04-25T04:12:23.640Z,23.47
2024-04-25T04:14:53.814Z,15.30
2024-04-25T04:17:23.791Z,15.80
2024-04-25T04:19:57.431Z,12.53
2024-04-25T04:22:27.500Z,13.67
2024-04-25T04:24:57.534Z,12.70
2024-04-25T04:27:27.508Z,14.13
2024-04-25T04:29:57.736Z,14.40
2024-04-25T04:32:27.973Z,20.87
2024-04-25T04:35:00.726Z,15.23
2024-04-25T04:37:30.984Z,13.53
2024-04-25T04:40:00.956Z,20.83
2024-04-25T04:42:30.996Z,13.43
2024-04-25T04:45:01.088Z,16.80
2024-04-25T04:47:31.126Z,14.63
2024-04-25T04:50:04.112Z,14.03
2024-04-25T04:52:35.298Z,12.07
2024-04-25T04:55:05.455Z,15.50
2024-04-25T04:57:35.449Z,13.37
2024-04-25T05:00:05.720Z,18.27
2024-04-25T05:02:35.880Z,16.33
2024-04-25T05:05:09.908Z,15.60
2024-04-25T05:07:40.214Z,16.90
2024-04-25T05:10:10.861Z,17.10
2024-04-25T05:12:41.208Z,15.30
2024-04-25T05:15:11.357Z,16.77
2024-04-25T05:17:41.683Z,23.57
2024-04-25T05:20:15.019Z,20.87
2024-04-25T05:22:45.025Z,18.43
2024-04-25T05:25:14.951Z,16.40
2024-04-25T05:27:45.000Z,18.87
2024-04-25T05:30:16.448Z,21.60
2024-04-25T05:32:46.452Z,19.20
2024-04-25T05:35:19.263Z,18.23
2024-04-25T05:37:49.261Z,17.40
2024-04-25T05:40:19.388Z,18.10
2024-04-25T05:42:49.272Z,19.03
2024-04-25T05:45:19.312Z,19.03
2024-04-25T05:47:49.439Z,18.90
2024-04-25T05:50:22.672Z,18.20
2024-04-25T05:52:52.815Z,22.10
2024-04-25T05:55:22.726Z,25.13
2024-04-25T05:57:52.815Z,22.23
2024-04-25T06:00:22.862Z,23.03
2024-04-25T06:02:52.880Z,20.83
2024-04-25T06:05:25.578Z,17.43
2024-04-25T06:07:55.537Z,23.37
2024-04-25T06:10:25.441Z,19.43
2024-04-25T06:12:55.648Z,14.17
2024-04-25T06:15:25.604Z,15.87
2024-04-25T06:17:56.423Z,15.37
2024-04-25T06:20:29.000Z,20.60
2024-04-25T06:22:59.196Z,17.80
2024-04-25T06:25:29.265Z,19.97
2024-04-25T06:27:59.180Z,16.60
2024-04-25T06:30:29.787Z,16.07
2024-04-25T06:33:00.684Z,19.03
2024-04-25T06:35:33.866Z,16.13
2024-04-25T06:38:03.891Z,13.93
2024-04-25T06:40:33.836Z,17.90
2024-04-25T06:43:04.310Z,17.90
2024-04-25T06:45:34.285Z,10.30
2024-04-25T06:48:05.832Z,12.53
2024-04-25T06:50:38.833Z,15.10
2024-04-25T06:53:08.930Z,12.13
2024-04-25T06:55:39.057Z,12.60
2024-04-25T06:58:09.062Z,12.80
2024-04-25T07:00:39.878Z,11.53
2024-04-25T07:03:10.219Z,10.53
2024-04-25T07:05:42.961Z,11.67
2024-04-25T07:08:14.284Z,9.80
2024-04-25T07:10:44.553Z,13.20
2024-04-25T07:13:14.681Z,11.57
2024-04-25T07:15:44.602Z,12.47
2024-04-25T07:18:16.533Z,9.80
2024-04-25T07:20:49.270Z,13.03
2024-04-25T07:23:19.422Z,9.43
2024-04-25T07:25:49.335Z,11.13
2024-04-25T07:28:21.406Z,10.40
2024-04-25T07:30:51.461Z,9.63
2024-04-25T07:33:21.894Z,10.63
2024-04-25T07:35:54.989Z,10.17
2024-04-25T07:38:25.165Z,10.13
2024-04-25T07:40:55.207Z,7.97
2024-04-25T07:43:25.488Z,6.83
2024-04-25T07:45:55.756Z,7.70
2024-04-25T07:48:25.846Z,7.23
2024-04-25T07:51:00.380Z,9.30
2024-04-25T07:53:29.286Z,9.33
2024-04-25T07:55:59.192Z,7.47
2024-04-25T07:58:29.670Z,7.40
2024-04-25T08:00:59.659Z,8.37
2024-04-25T08:03:29.815Z,9.07
2024-04-25T08:06:03.834Z,6.50
2024-04-25T08:08:34.350Z,9.43
2024-04-25T08:11:05.563Z,7.23
2024-04-25T08:13:36.063Z,5.40
2024-04-25T08:16:06.155Z,8.10
2024-04-25T08:18:36.235Z,6.63
2024-04-25T08:21:09.402Z,5.63
2024-04-25T08:23:39.388Z,6.70
2024-04-25T08:26:10.529Z,6.27
2024-04-25T08:28:41.516Z,6.57
2024-04-25T08:31:11.501Z,7.67
2024-04-25T08:33:41.647Z,7.27
2024-04-25T08:36:14.531Z,6.13
2024-04-25T08:38:47.880Z,7.33
2024-04-25T08:41:20.615Z,5.37
2024-04-25T08:43:51.120Z,5.67
2024-04-25T08:46:28.395Z,5.10
2024-04-25T08:49:00.854Z,6.33
2024-04-25T08:51:35.843Z,5.20
2024-04-25T08:54:07.592Z,5.70
2024-04-25T08:56:38.312Z,6.13
2024-04-25T08:59:08.275Z,5.37
2024-04-25T09:01:42.285Z,5.17
2024-04-25T09:04:15.939Z,5.40
2024-04-25T09:06:49.317Z,5.00
2024-04-25T09:09:19.594Z,4.97
2024-04-25T09:11:55.212Z,5.53
2024-04-25T09:14:25.805Z,5.03
2024-04-25T09:16:56.762Z,4.73
2024-04-25T09:19:27.838Z,4.50
2024-04-25T09:22:00.621Z,3.77
2024-04-25T09:24:30.707Z,3.70
2024-04-25T09:27:01.199Z,3.37
2024-04-25T09:29:33.354Z,3.27
2024-04-25T09:32:04.066Z,4.63
2024-04-25T09:34:34.693Z,5.50
2024-04-25T09:37:07.616Z,2.97
2024-04-25T09:39:42.469Z,3.03
2024-04-25T09:42:14.496Z,2.43
2024-04-25T09:44:45.471Z,3.27
2024-04-25T09:47:23.947Z,2.03
2024-04-25T09:49:59.834Z,1.97
2024-04-25T09:52:39.253Z,2.53
2024-04-25T09:55:11.073Z,2.50
2024-04-25T09:57:46.024Z,2.60
2024-04-25T10:00:17.474Z,2.43
2024-04-25T10:02:49.808Z,2.67
2024-04-25T10:05:20.256Z,2.53
2024-04-25T10:07:55.235Z,2.10
2024-04-25T10:10:26.460Z,1.90
2024-04-25T10:12:56.496Z,2.60
2024-04-25T10:15:32.187Z,2.50
2024-04-25T10:18:02.559Z,2.33
2024-04-25T10:20:32.895Z,1.50
2024-04-25T10:23:08.405Z,2.17
2024-04-25T10:25:38.334Z,1.77
2024-04-25T10:28:12.775Z,3.43
2024-04-25T10:30:43.130Z,2.90
2024-04-25T10:33:13.809Z,3.00
2024-04-25T10:35:47.214Z,3.57
2024-04-25T10:38:25.977Z,4.20
2024-04-25T10:40:56.073Z,1.70
2024-04-25T10:43:26.354Z,2.57
2024-04-25T10:45:56.608Z,2.53
2024-04-25T10:48:26.941Z,2.07
2024-04-25T10:50:57.036Z,2.87
2024-04-25T10:53:29.910Z,1.77
2024-04-25T10:55:59.837Z,2.53
2024-04-25T10:58:29.801Z,2.30
2024-04-25T11:01:00.119Z,2.63
2024-04-25T11:03:30.086Z,3.13
2024-04-25T11:06:00.969Z,3.53
2024-04-25T11:08:34.999Z,1.63
2024-04-25T11:11:04.976Z,4.60
2024-04-25T11:13:35.106Z,2.53
2024-04-25T11:16:05.154Z,3.43
2024-04-25T11:18:35.942Z,2.80
2024-04-25T11:21:07.470Z,3.50
2024-04-25T11:23:42.011Z,3.90
2024-04-25T11:26:12.190Z,2.03
2024-04-25T11:28:43.157Z,1.90
2024-04-25T11:31:13.249Z,2.53
2024-04-25T11:33:44.985Z,2.87
2024-04-25T11:36:26.251Z,1.53
2024-04-25T11:39:00.390Z,2.57
2024-04-25T11:41:30.755Z,4.90
2024-04-25T11:44:00.976Z,1.97
2024-04-25T11:46:30.954Z,1.80
2024-04-25T11:49:04.998Z,6.00
2024-04-25T11:51:35.506Z,3.33
2024-04-25T11:54:08.577Z,1.70
2024-04-25T11:56:39.614Z,2.93
2024-04-25T11:59:09.849Z,2.00
2024-04-25T12:01:39.758Z,1.70
2024-04-25T12:04:11.622Z,1.30
2024-04-25T12:06:41.894Z,1.47
2024-04-25T12:09:14.587Z,1.47
2024-04-25T12:11:47.975Z,1.50
2024-04-25T12:14:20.775Z,5.83
2024-04-25T12:16:50.813Z,0.90
2024-04-25T12:19:21.791Z,1.70
2024-04-25T12:21:52.097Z,1.50
2024-04-25T12:24:24.731Z,1.40
2024-04-25T12:26:54.819Z,3.17
2024-04-25T12:29:24.826Z,1.83
2024-04-25T12:31:54.760Z,2.40
2024-04-25T12:34:25.065Z,3.13
2024-04-25T12:36:55.073Z,1.50
2024-04-25T12:39:27.894Z,2.50
2024-04-25T12:41:57.825Z,1.07
2024-04-25T12:44:30.761Z,1.37
2024-04-25T12:47:01.605Z,1.17
2024-04-25T12:49:37.598Z,3.67
2024-04-25T12:52:09.198Z,3.63
2024-04-25T12:54:42.496Z,0.60
2024-04-25T12:57:22.082Z,0.70
2024-04-25T12:59:54.646Z,0.70
2024-04-25T13:02:25.735Z,1.73
2024-04-25T13:04:56.555Z,2.60
2024-04-25T13:07:26.728Z,1.33
2024-04-25T13:09:59.629Z,2.80
2024-04-25T13:12:29.768Z,1.00
2024-04-25T13:14:59.866Z,4.07
2024-04-25T13:17:30.256Z,4.50
2024-04-25T13:20:00.827Z,3.13
2024-04-25T13:22:31.055Z,0.80
2024-04-25T13:25:03.999Z,1.37
2024-04-25T13:27:34.197Z,4.60
2024-04-25T13:30:04.093Z,0.93
2024-04-25T13:32:34.245Z,0.70
2024-04-25T13:35:04.634Z,0.70
2024-04-25T13:37:34.930Z,0.70
2024-04-25T13:40:08.486Z,0.63
2024-04-25T13:42:38.796Z,2.53
2024-04-25T13:45:09.779Z,1.27
2024-04-25T13:47:40.071Z,1.37
2024-04-25T13:50:10.806Z,2.33
2024-04-25T13:52:41.670Z,0.80
2024-04-25T13:55:15.812Z,1.17
2024-04-25T13:57:45.997Z,0.80
2024-04-25T14:00:16.644Z,0.80
2024-04-25T14:02:48.225Z,0.60
2024-04-25T14:05:18.661Z,0.60
2024-04-25T14:07:52.201Z,1.00
2024-04-25T14:10:25.267Z,0.60
2024-04-25T14:12:55.304Z,0.47
2024-04-25T14:15:25.461Z,0.53
2024-04-25T14:17:55.524Z,0.60
2024-04-25T14:20:25.877Z,0.67
2024-04-25T14:22:55.899Z,1.03
2024-04-25T14:25:45.167Z,0.83
2024-04-25T14:28:31.157Z,1.33
2024-04-25T14:31:01.382Z,1.27
2024-04-25T14:33:31.430Z,0.80
2024-04-25T14:36:01.850Z,0.63
2024-04-25T14:38:32.466Z,0.63
2024-04-25T14:41:09.941Z,0.70
2024-04-25T14:43:39.956Z,2.87
2024-04-25T14:46:11.837Z,0.70
2024-04-25T14:48:42.328Z,0.60
2024-04-25T14:51:12.712Z,1.23
2024-04-25T14:53:42.732Z,0.70
2024-04-25T14:56:15.580Z,0.70
2024-04-25T14:58:45.793Z,0.70
2024-04-25T15:01:22.112Z,1.30
2024-04-25T15:03:52.183Z,0.70
2024-04-25T15:06:22.373Z,0.97
2024-04-25T15:08:52.585Z,0.80
2024-04-25T15:11:26.742Z,1.13
2024-04-25T15:13:56.749Z,0.97
2024-04-25T15:16:28.040Z,6.20
2024-04-25T15:18:58.048Z,1.03
2024-04-25T15:21:30.039Z,1.30
2024-04-25T15:24:01.992Z,0.97
2024-04-25T15:26:34.703Z,2.17
2024-04-25T15:29:07.745Z,0.80
2024-04-25T15:31:39.624Z,0.90
2024-04-25T15:34:10.229Z,1.10
2024-04-25T15:36:40.843Z,1.23
2024-04-25T15:39:12.777Z,1.23
2024-04-25T15:41:45.839Z,1.67
2024-04-25T15:44:16.703Z,1.47
2024-04-25T15:46:46.832Z,1.27
2024-04-25T15:49:17.018Z,3.33
2024-04-25T15:51:47.080Z,1.47
2024-04-25T15:54:17.122Z,2.00
2024-04-25T15:56:51.130Z,2.03
2024-04-25T15:59:23.246Z,1.73
2024-04-25T16:01:53.502Z,1.83
2024-04-25T16:04:23.525Z,1.93
2024-04-25T16:06:53.600Z,2.30
2024-04-25T16:09:23.910Z,3.50
2024-04-25T16:11:57.623Z,2.70
2024-04-25T16:14:27.962Z,2.97
2024-04-25T16:16:57.957Z,4.00
2024-04-25T16:19:30.505Z,3.27
2024-04-25T16:22:02.005Z,3.10
2024-04-25T16:24:32.218Z,3.03
2024-04-25T16:27:07.324Z,3.00
2024-04-25T16:29:37.983Z,4.03
2024-04-25T16:32:08.153Z,7.10
2024-04-25T16:34:39.474Z,4.50
2024-04-25T16:37:09.471Z,5.23
2024-04-25T16:39:39.702Z,4.90
2024-04-25T16:42:12.822Z,6.00
2024-04-25T16:44:43.390Z,6.53
2024-04-25T16:47:13.884Z,9.10
2024-04-25T16:49:43.822Z,5.33
2024-04-25T16:52:13.712Z,8.10
2024-04-25T16:54:43.868Z,6.27
2024-04-25T16:57:16.544Z,6.80
2024-04-25T16:59:47.361Z,5.90
2024-04-25T17:02:17.551Z,6.73
2024-04-25T17:04:48.885Z,9.23
2024-04-25T17:07:18.967Z,6.73
2024-04-25T17:09:48.987Z,8.40
2024-04-25T17:12:21.864Z,7.27
2024-04-25T17:14:51.960Z,8.00
2024-04-25T17:17:21.905Z,7.30
2024-04-25T17:19:52.098Z,6.13
2024-04-25T17:22:22.422Z,7.40
2024-04-25T17:24:53.882Z,8.57
2024-04-25T17:27:27.516Z,9.07
2024-04-25T17:29:58.121Z,10.50
2024-04-25T17:32:28.898Z,7.50
2024-04-25T17:35:00.120Z,7.50
2024-04-25T17:37:30.854Z,8.03
2024-04-25T17:40:01.189Z,7.00
2024-04-25T17:42:34.154Z,12.87
2024-04-25T17:45:07.890Z,9.40
2024-04-25T17:47:42.223Z,10.47
2024-04-25T17:50:12.977Z,8.83
2024-04-25T17:52:43.179Z,9.73
2024-04-25T17:55:13.057Z,10.43
2024-04-25T17:57:46.070Z,9.20
2024-04-25T18:00:16.670Z,11.43
2024-04-25T18:02:49.885Z,9.10
2024-04-25T18:05:20.033Z,11.23
2024-04-25T18:07:50.090Z,11.40
2024-04-25T18:10:20.173Z,9.57
2024-04-25T18:12:52.874Z,10.77
2024-04-25T18:15:22.934Z,9.90
2024-04-25T18:17:52.999Z,9.37
2024-04-25T18:20:23.404Z,11.87
2024-04-25T18:22:53.539Z,13.00
2024-04-25T18:25:23.777Z,9.67
2024-04-25T18:27:54.116Z,8.63
2024-04-25T18:30:25.214Z,12.07
2024-04-25T18:32:55.713Z,10.73
2024-04-25T18:35:25.901Z,15.07
2024-04-25T18:37:55.929Z,10.93
2024-04-25T18:40:26.669Z,10.93
2024-04-25T18:42:59.829Z,11.83
2024-04-25T18:45:30.056Z,16.73
2024-04-25T18:48:00.296Z,13.30
2024-04-25T18:50:31.331Z,15.27
2024-04-25T18:53:01.362Z,14.40
2024-04-25T18:55:31.286Z,14.37
2024-04-25T18:58:04.104Z,15.30
2024-04-25T19:00:33.993Z,13.13
2024-04-25T19:03:04.420Z,13.63
2024-04-25T19:05:34.597Z,13.13
2024-04-25T19:08:05.053Z,13.20
2024-04-25T19:10:35.527Z,14.20
2024-04-25T19:13:10.079Z,16.70
2024-04-25T19:15:40.297Z,16.17
2024-04-25T19:18:14.792Z,18.63
2024-04-25T19:20:46.584Z,18.67
2024-04-25T19:23:16.580Z,15.97
2024-04-25T19:25:46.787Z,16.33
2024-04-25T19:28:19.358Z,15.40
2024-04-25T19:30:49.702Z,20.33
2024-04-25T19:33:20.024Z,18.33
2024-04-25T19:35:51.131Z,15.80
2024-04-25T19:38:21.232Z,17.57
2024-04-25T19:40:51.652Z,15.97
2024-04-25T19:43:24.475Z,21.00
2024-04-25T19:45:55.218Z,16.37
2024-04-25T19:48:25.442Z,21.20
2024-04-25T19:50:55.887Z,16.97
2024-04-25T19:53:25.835Z,23.37
2024-04-25T19:55:56.007Z,18.47
2024-04-25T19:58:29.004Z,14.63
2024-04-25T20:00:58.952Z,16.67
2024-04-25T20:03:29.083Z,18.37
2024-04-25T20:06:02.440Z,18.20
2024-04-25T20:08:32.830Z,18.80
2024-04-25T20:11:02.943Z,13.70
2024-04-25T20:13:36.618Z,19.33
2024-04-25T20:16:06.808Z,15.90
2024-04-25T20:18:52.738Z,17.67
2024-04-25T20:21:22.877Z,14.70
2024-04-25T20:23:53.017Z,18.97
2024-04-25T20:26:23.204Z,20.73
2024-04-25T20:28:55.873Z,17.37
2024-04-25T20:31:26.217Z,16.23
2024-04-25T20:33:56.949Z,21.23
2024-04-25T20:36:27.060Z,17.33
2024-04-25T20:38:57.443Z,18.63
2024-04-25T20:41:29.388Z,17.63
2024-04-25T20:44:02.490Z,19.97
2024-04-25T20:46:32.508Z,17.23
2024-04-25T20:49:02.688Z,15.77
2024-04-25T20:51:35.267Z,18.30
2024-04-25T20:54:05.434Z,17.30
2024-04-25T20:56:36.203Z,15.93
2024-04-25T20:59:08.912Z,16.70
2024-04-25T21:01:39.793Z,22.87
2024-04-25T21:04:09.841Z,17.17
2024-04-25T21:06:44.803Z,20.50
2024-04-25T21:09:18.537Z,18.47
2024-04-25T21:11:49.118Z,18.33
2024-04-25T21:14:21.805Z,21.00
2024-04-25T21:16:53.063Z,22.23
2024-04-25T21:19:23.941Z,18.27
2024-04-25T21:21:54.214Z,21.13
2024-04-25T21:24:24.215Z,19.53
2024-04-25T21:26:54.120Z,19.87
2024-04-25T21:29:27.039Z,16.97
2024-04-25T21:31:57.724Z,18.53
2024-04-25T21:34:28.620Z,17.03
2024-04-25T21:36:58.498Z,20.73
2024-04-25T21:39:28.511Z,18.53
2024-04-25T21:41:58.554Z,18.03
2024-04-25T21:44:31.250Z,18.47
2024-04-25T21:47:01.222Z,17.40
2024-04-25T21:49:31.179Z,18.47
2024-04-25T21:52:01.402Z,25.10
2024-04-25T21:54:31.303Z,17.07
2024-04-25T21:57:01.409Z,20.03
2024-04-25T21:59:34.199Z,20.80
2024-04-25T22:02:04.138Z,18.77
2024-04-25T22:04:34.576Z,17.13
2024-04-25T22:07:04.453Z,17.33
2024-04-25T22:09:34.560Z,18.83
2024-04-25T22:12:04.542Z,20.93
2024-04-25T22:14:37.255Z,17.50
2024-04-25T22:17:07.480Z,20.17
2024-04-25T22:19:37.787Z,18.73
2024-04-25T22:22:09.293Z,16.70
2024-04-25T22:24:40.839Z,20.33
2024-04-25T22:27:12.494Z,21.70
2024-04-25T22:29:45.932Z,18.87
2024-04-25T22:32:15.947Z,17.57
2024-04-25T22:34:46.222Z,16.37
2024-04-25T22:37:16.359Z,18.77
2024-04-25T22:39:46.315Z,24.80
2024-04-25T22:42:16.338Z,18.27
2024-04-25T22:44:50.844Z,23.43
2024-04-25T22:47:22.527Z,18.40
2024-04-25T22:49:52.526Z,17.20
2024-04-25T22:52:24.045Z,17.70
2024-04-25T22:54:54.012Z,19.80
2024-04-25T22:57:24.096Z,18.03
2024-04-25T22:59:56.809Z,19.90
2024-04-25T23:02:26.992Z,20.50
2024-04-25T23:04:56.947Z,20.33
2024-04-25T23:07:26.953Z,19.60
2024-04-25T23:09:57.150Z,21.00
2024-04-25T23:12:27.285Z,25.30
2024-04-25T23:15:00.096Z,19.67
2024-04-25T23:17:33.421Z,22.70
2024-04-25T23:20:03.528Z,20.13
2024-04-25T23:22:35.728Z,17.30
2024-04-25T23:25:06.044Z,20.17
2024-04-25T23:27:35.980Z,19.77
2024-04-25T23:30:09.575Z,22.93
2024-04-25T23:32:39.702Z,17.97
2024-04-25T23:35:10.441Z,19.93
2024-04-25T23:37:40.356Z,20.33
2024-04-25T23:40:10.962Z,22.10
2024-04-25T23:42:41.556Z,20.13
2024-04-25T23:45:14.141Z,17.57
2024-04-25T23:47:44.627Z,19.77
2024-04-25T23:50:14.946Z,23.70
2024-04-25T23:52:45.022Z,16.17
2024-04-25T23:55:14.993Z,23.10
2024-04-25T23:57:44.986Z,19.67
